Time;durP1;ratioP1;P1;durP2;ratioP2;P2;SDS_P1;SDS_P2;PMS_P1;PMS_P2;Temp;Humidity;BMP_temperature;BMP_pressure;BME280_temperature;BME280_humidity;BME280_pressure;Samples;Min_cycle;Max_cycle;Signal;HPM_P1;HPM_P2
2021/12/16 00:09:12;;;;;;;16.03;8.90;;;8.80;99.90;;;;;;5113600;28;20047;-82
2021/12/16 00:35:47;;;;;;;21.97;10.87;;;8.70;99.90;;;;;;5112557;28;20044;-83
2021/12/16 00:38:14;;;;;;;23.53;11.20;;;8.70;99.90;;;;;;5112485;28;20039;-82
2021/12/16 00:40:42;;;;;;;19.40;10.57;;;8.70;99.90;;;;;;5078695;28;20042;-82
2021/12/16 00:43:22;;;;;;;24.20;10.57;;;8.70;99.90;;;;;;5100664;28;20712;-82
2021/12/16 00:54:10;;;;;;;18.00;11.23;;;8.60;99.90;;;;;;5117624;27;20091;-82
2021/12/16 00:56:57;;;;;;;22.02;11.35;;;8.60;99.90;;;;;;5121177;27;20055;-82
2021/12/16 00:59:25;;;;;;;20.93;11.13;;;8.60;99.90;;;;;;5120679;27;20039;-83
2021/12/16 01:02:15;;;;;;;20.73;10.37;;;8.60;99.90;;;;;;5104222;27;20043;-82
2021/12/16 01:33:32;;;;;;;24.77;11.77;;;8.60;99.90;;;;;;5120739;27;20131;-82
2021/12/16 01:50:34;;;;;;;27.80;14.50;;;8.30;99.90;;;;;;5120821;27;19927;-83
2021/12/16 01:55:49;;;;;;;25.83;14.47;;;8.30;99.90;;;;;;5118163;27;20050;-83
2021/12/16 01:58:19;;;;;;;26.70;14.10;;;8.30;99.90;;;;;;5118257;27;20055;-83
2021/12/16 02:00:58;;;;;;;24.90;13.73;;;8.30;99.90;;;;;;5085792;27;20043;-82
2021/12/16 02:03:38;;;;;;;26.70;14.73;;;8.30;99.90;;;;;;5119878;27;20061;-82
2021/12/16 02:08:45;;;;;;;29.47;15.57;;;8.30;99.90;;;;;;5119673;27;20073;-82
2021/12/16 02:27:48;;;;;;;31.93;16.00;;;8.40;99.90;;;;;;5118834;27;20059;-82
2021/12/16 02:35:42;;;;;;;30.93;16.00;;;8.40;99.90;;;;;;5117934;27;20065;-83
2021/12/16 02:38:08;;;;;;;33.50;17.27;;;8.40;99.90;;;;;;5120097;27;20058;-81
2021/12/16 02:40:36;;;;;;;30.80;15.80;;;8.40;99.90;;;;;;5115772;27;20053;-81
2021/12/16 02:43:37;;;;;;;30.90;15.60;;;8.40;99.90;;;;;;5102656;27;20054;-82
2021/12/16 02:48:39;;;;;;;31.63;17.20;;;8.40;99.90;;;;;;5102033;27;20070;-82
2021/12/16 02:51:19;;;;;;;29.57;15.97;;;8.40;99.90;;;;;;5118985;27;20120;-82
2021/12/16 02:53:49;;;;;;;30.17;15.67;;;8.40;99.90;;;;;;5109281;27;20080;-81
2021/12/16 02:56:15;;;;;;;32.43;16.13;;;8.50;99.90;;;;;;5115837;27;20071;-82
2021/12/16 02:58:46;;;;;;;30.23;15.77;;;8.50;99.90;;;;;;5120142;27;20039;-82
2021/12/16 03:01:34;;;;;;;32.43;17.10;;;8.40;99.90;;;;;;5101436;27;20039;-82
2021/12/16 03:04:02;;;;;;;33.43;17.03;;;8.50;99.90;;;;;;5100581;27;20043;-82
2021/12/16 03:06:30;;;;;;;26.30;14.87;;;8.50;99.90;;;;;;5118748;27;20509;-82
2021/12/16 03:08:58;;;;;;;32.33;16.70;;;8.50;99.90;;;;;;5118293;27;20043;-82
2021/12/16 03:11:35;;;;;;;28.80;15.03;;;8.50;99.90;;;;;;5119420;27;20078;-82
2021/12/16 03:16:57;;;;;;;36.23;15.97;;;8.50;99.90;;;;;;5116907;27;20051;-82
2021/12/16 03:19:47;;;;;;;28.10;15.27;;;8.50;99.90;;;;;;5118153;27;20031;-82
2021/12/16 03:22:19;;;;;;;31.53;16.67;;;8.50;99.90;;;;;;5116815;27;20078;-81
2021/12/16 03:25:13;;;;;;;32.10;17.17;;;8.50;99.90;;;;;;5119441;27;20035;-82
2021/12/16 03:37:50;;;;;;;32.07;16.97;;;8.50;99.90;;;;;;5102096;27;20051;-81
2021/12/16 03:40:16;;;;;;;35.37;18.77;;;8.50;99.90;;;;;;5115539;27;20058;-81
2021/12/16 03:42:48;;;;;;;31.80;17.17;;;8.40;99.90;;;;;;5096917;28;20051;-83
2021/12/16 03:46:25;;;;;;;29.57;16.90;;;8.50;99.90;;;;;;5112573;28;20058;-83
2021/12/16 03:48:34;;;;;;;32.23;17.93;;;8.40;99.90;;;;;;5113992;28;20313;-82
2021/12/16 03:51:04;;;;;;;33.27;18.40;;;8.40;99.90;;;;;;5093052;28;20058;-82
2021/12/16 03:53:30;;;;;;;38.30;18.17;;;8.40;99.90;;;;;;5097758;28;20039;-82
2021/12/16 03:55:56;;;;;;;34.93;18.43;;;8.40;99.90;;;;;;5078450;28;20111;-82
2021/12/16 03:58:22;;;;;;;35.37;17.77;;;8.40;99.90;;;;;;5114967;28;20483;-82
2021/12/16 04:00:53;;;;;;;34.67;18.00;;;8.40;99.90;;;;;;5097102;28;20073;-81
2021/12/16 04:03:19;;;;;;;33.23;18.03;;;8.30;99.90;;;;;;5111282;28;20040;-82
2021/12/16 04:05:46;;;;;;;36.70;18.23;;;8.30;99.90;;;;;;5095459;28;20434;-82
2021/12/16 04:08:12;;;;;;;40.57;19.00;;;8.30;99.90;;;;;;5114449;28;20036;-82
2021/12/16 04:10:43;;;;;;;38.77;18.57;;;8.20;99.90;;;;;;5114305;28;20050;-82
2021/12/16 04:13:14;;;;;;;32.50;17.73;;;8.10;99.90;;;;;;5112160;28;20077;-82
2021/12/16 04:15:40;;;;;;;39.27;19.10;;;8.10;99.90;;;;;;5113352;28;20129;-82
2021/12/16 04:18:06;;;;;;;38.27;18.57;;;8.10;99.90;;;;;;5111104;28;20051;-82
2021/12/16 04:20:32;;;;;;;31.77;17.43;;;8.10;99.90;;;;;;5114156;28;20040;-83
2021/12/16 04:22:58;;;;;;;38.67;19.10;;;8.00;99.90;;;;;;5113953;28;20051;-80
2021/12/16 04:25:32;;;;;;;36.73;20.47;;;8.00;99.90;;;;;;5094762;28;20078;-82
2021/12/16 04:28:02;;;;;;;38.70;19.27;;;8.00;99.90;;;;;;5111721;28;20052;-81
2021/12/16 04:30:29;;;;;;;40.30;20.10;;;8.00;99.90;;;;;;5113778;28;20126;-83
2021/12/16 04:32:55;;;;;;;35.53;18.30;;;8.00;99.90;;;;;;5116027;28;20039;-82
2021/12/16 04:35:22;;;;;;;36.57;17.70;;;7.90;99.90;;;;;;5098969;28;20032;-82
2021/12/16 04:37:49;;;;;;;38.00;19.70;;;7.90;99.90;;;;;;5116778;28;20040;-82
2021/12/16 04:40:17;;;;;;;39.00;20.40;;;7.80;99.90;;;;;;5097785;28;20047;-82
2021/12/16 04:42:45;;;;;;;39.70;18.83;;;7.80;99.90;;;;;;5114638;28;20786;-82
2021/12/16 04:45:15;;;;;;;37.17;19.80;;;7.70;99.90;;;;;;5099143;28;20783;-83
2021/12/16 04:47:42;;;;;;;39.33;19.50;;;7.70;99.90;;;;;;5116789;28;20075;-83
2021/12/16 04:50:09;;;;;;;33.37;18.87;;;7.70;99.90;;;;;;5116467;28;20112;-82
2021/12/16 04:52:35;;;;;;;40.07;19.07;;;7.70;99.90;;;;;;5094610;28;20048;-82
2021/12/16 04:55:03;;;;;;;42.77;19.53;;;7.70;99.90;;;;;;5116247;28;20189;-82
2021/12/16 04:57:29;;;;;;;35.97;18.77;;;7.70;99.90;;;;;;5115280;28;20040;-82
2021/12/16 04:59:55;;;;;;;34.30;19.23;;;7.70;99.90;;;;;;5112865;28;20050;-83
2021/12/16 05:02:23;;;;;;;34.27;19.17;;;7.60;99.90;;;;;;5116365;28;20043;-82
2021/12/16 05:04:49;;;;;;;35.17;19.37;;;7.60;99.90;;;;;;5115727;28;20044;-83
2021/12/16 05:07:16;;;;;;;36.57;18.13;;;7.50;99.90;;;;;;5114138;28;20048;-82
2021/12/16 05:12:16;;;;;;;40.50;21.30;;;7.60;99.90;;;;;;5097088;28;20160;-81
2021/12/16 05:14:44;;;;;;;37.97;19.93;;;7.60;99.90;;;;;;5114921;28;20398;-81
2021/12/16 05:17:23;;;;;;;35.77;19.33;;;7.60;99.90;;;;;;5115915;28;20685;-82
2021/12/16 05:19:51;;;;;;;36.23;19.57;;;7.60;99.90;;;;;;5101822;28;20825;-82
2021/12/16 05:25:05;;;;;;;40.00;21.00;;;7.60;99.90;;;;;;5115416;28;20059;-81
2021/12/16 05:27:31;;;;;;;35.90;20.20;;;7.70;99.90;;;;;;5115570;28;20051;-82
2021/12/16 05:29:57;;;;;;;35.90;18.97;;;7.60;99.90;;;;;;5115842;28;20043;-81
2021/12/16 05:32:23;;;;;;;32.73;19.73;;;7.60;99.90;;;;;;5093224;28;20050;-82
2021/12/16 05:34:49;;;;;;;38.63;21.27;;;7.60;99.90;;;;;;5105128;28;20081;-82
2021/12/16 05:37:15;;;;;;;40.53;20.07;;;7.70;99.90;;;;;;5089953;28;20407;-80
2021/12/16 05:39:41;;;;;;;40.03;21.37;;;7.70;99.90;;;;;;5098695;28;20050;-81
2021/12/16 05:42:07;;;;;;;43.00;21.90;;;7.70;99.90;;;;;;5103656;28;20120;-81
2021/12/16 05:44:33;;;;;;;37.67;19.47;;;7.70;99.90;;;;;;5099236;28;20043;-81
2021/12/16 05:46:58;;;;;;;39.07;21.80;;;7.80;99.90;;;;;;5099683;28;20075;-81
2021/12/16 05:49:24;;;;;;;35.77;20.23;;;7.80;99.90;;;;;;5116656;28;20496;-81
2021/12/16 05:51:50;;;;;;;41.37;21.00;;;7.80;99.90;;;;;;5115953;28;20096;-83
2021/12/16 05:54:18;;;;;;;39.13;20.23;;;7.80;99.90;;;;;;5117345;28;20073;-87
2021/12/16 05:56:46;;;;;;;41.97;22.17;;;7.90;99.90;;;;;;5116528;28;20506;-84
2021/12/16 05:59:13;;;;;;;43.70;21.77;;;7.90;99.90;;;;;;5117425;28;20122;-85
2021/12/16 06:01:40;;;;;;;41.77;21.90;;;7.90;99.90;;;;;;5095341;28;20054;-82
2021/12/16 06:04:07;;;;;;;40.20;21.87;;;7.90;99.90;;;;;;5116238;28;20043;-79
2021/12/16 06:06:33;;;;;;;48.10;23.10;;;7.90;99.90;;;;;;5116010;28;20051;-79
2021/12/16 06:08:59;;;;;;;43.43;22.50;;;7.90;99.90;;;;;;5115294;28;20062;-79
2021/12/16 06:11:29;;;;;;;39.53;22.43;;;7.90;99.90;;;;;;5116165;28;20068;-79
2021/12/16 06:14:09;;;;;;;42.10;21.30;;;7.90;99.90;;;;;;5115506;28;20039;-81
2021/12/16 06:27:37;;;;;;;39.90;21.33;;;7.90;99.90;;;;;;5114866;28;20075;-81
2021/12/16 06:30:09;;;;;;;44.90;21.67;;;7.90;99.90;;;;;;5115902;28;20137;-82
2021/12/16 06:32:35;;;;;;;;;;;8.00;99.90;;;;;;5114481;28;20050;-82
2021/12/16 06:35:02;;;;;;;42.70;20.97;;;8.00;99.90;;;;;;5112881;28;19919;-82
2021/12/16 06:37:28;;;;;;;37.03;20.13;;;8.00;99.90;;;;;;5097444;28;20043;-81
2021/12/16 06:39:54;;;;;;;43.43;20.70;;;8.00;99.90;;;;;;5113117;28;20071;-81
2021/12/16 06:42:20;;;;;;;38.10;18.83;;;7.90;99.90;;;;;;5097218;28;20047;-82
2021/12/16 06:44:53;;;;;;;39.67;20.70;;;7.90;99.90;;;;;;5095636;28;20528;-81
2021/12/16 06:47:25;;;;;;;37.10;20.30;;;7.90;99.90;;;;;;5112625;28;20051;-81
2021/12/16 06:49:53;;;;;;;40.77;20.70;;;7.90;99.90;;;;;;5111209;27;20394;-80
2021/12/16 06:52:24;;;;;;;41.77;20.67;;;7.90;99.90;;;;;;5112728;28;20040;-82
2021/12/16 06:59:54;;;;;;;44.10;22.03;;;7.80;99.90;;;;;;5091953;28;20047;-82
2021/12/16 07:05:08;;;;;;;42.60;21.67;;;7.80;99.90;;;;;;5108769;28;20079;-82
2021/12/16 07:07:35;;;;;;;37.53;21.23;;;7.70;99.90;;;;;;5109381;28;20082;-83
2021/12/16 07:10:00;;;;;;;41.33;20.17;;;7.70;99.90;;;;;;5086706;28;20107;-82
2021/12/16 07:12:35;;;;;;;39.47;21.10;;;7.70;99.90;;;;;;5104450;28;20086;-83
2021/12/16 07:15:11;;;;;;;42.13;21.53;;;7.60;99.90;;;;;;5070390;28;20048;-82
2021/12/16 07:17:39;;;;;;;44.40;21.73;;;7.60;99.90;;;;;;5103977;28;20036;-82
2021/12/16 07:20:10;;;;;;;34.50;19.80;;;7.60;99.90;;;;;;5108977;28;20056;-83
2021/12/16 07:22:37;;;;;;;39.20;20.33;;;7.50;99.90;;;;;;5100500;28;20051;-83
2021/12/16 07:25:06;;;;;;;39.27;20.30;;;7.50;99.90;;;;;;5102722;28;20051;-83
2021/12/16 07:27:34;;;;;;;39.90;21.00;;;7.40;99.90;;;;;;5107715;28;20613;-83
2021/12/16 07:30:02;;;;;;;38.03;18.73;;;7.40;99.90;;;;;;5109222;28;20534;-83
2021/12/16 07:32:28;;;;;;;41.30;20.67;;;7.40;99.90;;;;;;5090894;28;20111;-82
2021/12/16 07:34:54;;;;;;;37.07;20.00;;;7.40;99.90;;;;;;5098511;28;20071;-83
2021/12/16 07:37:19;;;;;;;45.50;19.83;;;7.30;99.90;;;;;;5096189;28;20097;-83
2021/12/16 07:39:47;;;;;;;37.30;21.03;;;7.30;99.90;;;;;;5108664;28;20356;-83
2021/12/16 07:42:15;;;;;;;34.87;18.43;;;7.30;99.90;;;;;;5112053;28;20139;-83
2021/12/16 07:44:41;;;;;;;38.47;19.13;;;7.30;99.90;;;;;;5095119;28;20096;-83
2021/12/16 07:47:12;;;;;;;34.03;17.87;;;7.20;99.90;;;;;;5093052;28;20036;-83
2021/12/16 07:49:41;;;;;;;30.93;18.53;;;7.20;99.90;;;;;;5113745;28;20045;-83
2021/12/16 07:52:14;;;;;;;35.37;19.70;;;7.10;99.90;;;;;;5113180;28;20040;-82
2021/12/16 07:54:40;;;;;;;43.53;21.03;;;7.10;99.90;;;;;;5114427;28;20530;-83
2021/12/16 07:57:06;;;;;;;35.70;18.90;;;7.10;99.90;;;;;;5112498;28;20050;-83
2021/12/16 07:59:34;;;;;;;27.50;16.70;;;7.10;99.90;;;;;;5097124;28;20082;-83
2021/12/16 08:02:01;;;;;;;42.93;21.27;;;7.00;99.90;;;;;;5095984;28;20075;-82
2021/12/16 08:04:30;;;;;;;29.43;17.00;;;6.90;99.90;;;;;;5112696;28;20039;-83
2021/12/16 08:07:04;;;;;;;42.10;21.30;;;6.90;99.90;;;;;;5093319;28;20464;-82
2021/12/16 08:09:32;;;;;;;31.90;18.67;;;6.90;99.90;;;;;;5112500;28;20067;-83
2021/12/16 08:11:58;;;;;;;41.97;21.03;;;6.90;99.90;;;;;;5114157;28;20045;-82
2021/12/16 08:14:25;;;;;;;36.10;19.47;;;6.90;99.90;;;;;;5095526;28;20122;-83
2021/12/16 08:16:51;;;;;;;40.20;20.20;;;6.90;99.90;;;;;;5112925;28;20052;-83
2021/12/16 08:19:16;;;;;;;38.57;20.33;;;6.90;99.90;;;;;;5096004;28;20041;-83
2021/12/16 08:21:43;;;;;;;39.03;19.30;;;6.90;99.90;;;;;;5095599;28;20047;-83
2021/12/16 08:24:14;;;;;;;46.10;23.63;;;6.90;99.90;;;;;;5113679;28;20059;-83
2021/12/16 08:26:40;;;;;;;41.20;21.97;;;6.90;99.90;;;;;;5112499;28;20375;-83
2021/12/16 08:29:07;;;;;;;33.27;18.53;;;7.00;99.90;;;;;;5080324;28;20043;-83
2021/12/16 08:31:34;;;;;;;47.07;24.00;;;7.00;99.90;;;;;;5112260;28;20103;-83
2021/12/16 08:34:00;;;;;;;49.07;23.67;;;7.00;99.90;;;;;;5079744;28;20062;-83
2021/12/16 08:36:27;;;;;;;44.03;23.50;;;7.10;99.90;;;;;;5095249;28;20729;-83
2021/12/16 08:38:53;;;;;;;43.97;22.27;;;7.10;99.90;;;;;;5113328;28;20047;-83
2021/12/16 08:41:27;;;;;;;46.63;24.87;;;7.20;99.90;;;;;;5112726;28;20052;-83
2021/12/16 08:43:53;;;;;;;47.90;23.53;;;7.20;99.90;;;;;;5083144;28;20048;-84
2021/12/16 08:46:23;;;;;;;44.77;22.83;;;7.20;99.90;;;;;;5077544;28;20105;-83
2021/12/16 08:48:49;;;;;;;43.30;22.23;;;7.20;99.90;;;;;;5081209;28;20051;-83
2021/12/16 08:51:21;;;;;;;57.63;24.27;;;7.20;99.90;;;;;;5072368;28;20522;-83
2021/12/16 08:53:48;;;;;;;47.30;24.13;;;7.30;99.90;;;;;;5105166;28;20044;-83
2021/12/16 08:56:14;;;;;;;46.50;25.00;;;7.40;99.90;;;;;;5084296;28;20054;-83
2021/12/16 08:58:40;;;;;;;58.90;26.60;;;7.40;99.90;;;;;;5123228;28;20422;-83
2021/12/16 09:01:16;;;;;;;54.03;26.57;;;7.50;99.90;;;;;;5087950;28;20044;-83
2021/12/16 09:03:43;;;;;;;54.57;25.63;;;7.60;99.90;;;;;;5105607;28;20078;-83
2021/12/16 09:06:09;;;;;;;50.40;25.13;;;7.70;99.90;;;;;;5104809;28;20108;-83
2021/12/16 09:08:36;;;;;;;56.50;27.47;;;7.80;99.90;;;;;;5101336;28;20051;-83
2021/12/16 09:11:05;;;;;;;51.37;25.10;;;7.90;99.90;;;;;;5107979;28;20104;-82
2021/12/16 09:13:32;;;;;;;60.80;24.63;;;8.00;99.90;;;;;;5083822;28;20047;-83
2021/12/16 09:16:04;;;;;;;66.37;27.33;;;8.00;99.90;;;;;;5069612;28;20044;-83
2021/12/16 09:18:32;;;;;;;60.50;25.88;;;8.10;99.90;;;;;;5115096;28;20581;-82
2021/12/16 09:21:00;;;;;;;54.47;25.87;;;8.20;99.90;;;;;;5103600;28;20063;-83
2021/12/16 09:23:27;;;;;;;57.20;26.50;;;8.20;99.90;;;;;;5115800;28;20040;-83
2021/12/16 09:25:53;;;;;;;58.67;26.50;;;8.30;99.90;;;;;;5088329;28;20046;-83
2021/12/16 09:28:21;;;;;;;61.03;27.40;;;8.30;99.90;;;;;;5071960;28;20043;-83
2021/12/16 09:30:48;;;;;;;57.80;27.03;;;8.30;99.90;;;;;;5089983;28;20028;-83
2021/12/16 09:33:16;;;;;;;63.60;28.87;;;8.30;99.90;;;;;;5112092;28;20091;-83
2021/12/16 09:35:45;;;;;;;59.60;27.90;;;8.30;99.90;;;;;;5103913;28;20048;-82
2021/12/16 09:38:13;;;;;;;54.70;26.97;;;8.30;99.90;;;;;;5112348;28;20040;-84
2021/12/16 09:40:47;;;;;;;62.63;26.13;;;8.20;99.90;;;;;;5088036;27;20115;-83
2021/12/16 09:43:13;;;;;;;60.87;26.30;;;8.20;99.90;;;;;;5101988;27;20103;-83
2021/12/16 09:45:39;;;;;;;58.80;27.23;;;8.20;99.90;;;;;;5102812;27;20106;-82
2021/12/16 09:48:05;;;;;;;66.90;26.63;;;8.20;99.90;;;;;;5075653;28;20078;-83
2021/12/16 09:50:33;;;;;;;66.57;27.97;;;8.20;99.90;;;;;;5115441;28;20089;-83
2021/12/16 09:52:59;;;;;;;58.33;25.20;;;8.20;99.90;;;;;;5116871;27;20070;-83
2021/12/16 09:55:26;;;;;;;62.00;26.37;;;8.30;99.90;;;;;;5119671;27;20435;-82
2021/12/16 09:57:52;;;;;;;65.03;26.93;;;8.30;99.90;;;;;;5115798;27;20540;-83
2021/12/16 10:00:22;;;;;;;61.50;25.33;;;8.30;99.90;;;;;;5084941;27;20047;-84
2021/12/16 10:02:52;;;;;;;73.37;28.07;;;8.30;99.90;;;;;;5102270;27;20070;-82
2021/12/16 10:05:18;;;;;;;81.30;30.57;;;8.40;99.90;;;;;;5097203;28;20128;-83
2021/12/16 10:07:44;;;;;;;78.97;30.20;;;8.30;99.90;;;;;;5119025;27;20043;-82
2021/12/16 10:10:17;;;;;;;64.53;27.07;;;8.30;99.90;;;;;;5097708;28;20432;-82
2021/12/16 10:12:46;;;;;;;67.80;26.70;;;8.40;99.90;;;;;;5100492;27;20044;-83
2021/12/16 10:18:03;;;;;;;62.00;27.07;;;8.40;99.90;;;;;;5117527;27;20054;-83
2021/12/16 10:20:35;;;;;;;51.57;23.67;;;8.40;99.90;;;;;;5103561;27;20460;-83
2021/12/16 10:23:03;;;;;;;;;;;8.50;99.90;;;;;;5116265;27;20077;-83
2021/12/16 10:25:46;;;;;;;50.03;21.73;;;8.60;99.90;;;;;;5115380;28;19924;-83
2021/12/16 10:28:16;;;;;;;60.10;25.20;;;8.60;99.90;;;;;;5117866;27;20624;-82
2021/12/16 10:30:53;;;;;;;44.07;22.27;;;8.60;99.90;;;;;;5097540;28;20051;-83
2021/12/16 10:33:28;;;;;;;56.27;24.30;;;8.70;99.90;;;;;;5108885;27;20039;-83
2021/12/16 10:36:05;;;;;;;55.63;24.10;;;8.60;99.90;;;;;;5097605;28;20445;-82
2021/12/16 10:38:40;;;;;;;42.60;20.73;;;8.70;99.90;;;;;;5100433;27;20039;-83
2021/12/16 10:41:09;;;;;;;53.27;23.30;;;8.60;99.90;;;;;;5117321;27;20055;-83
2021/12/16 10:43:40;;;;;;;46.57;21.37;;;8.60;99.90;;;;;;5117363;27;20055;-82
2021/12/16 10:46:11;;;;;;;46.57;20.70;;;8.60;99.90;;;;;;5101963;27;20104;-83
2021/12/16 10:48:46;;;;;;;50.30;22.27;;;8.70;99.90;;;;;;5115117;27;20043;-83
2021/12/16 10:51:30;;;;;;;49.53;21.83;;;8.70;99.90;;;;;;5100914;27;20047;-83
2021/12/16 10:54:01;;;;;;;54.37;22.27;;;8.70;99.90;;;;;;5105427;27;20130;-83
2021/12/16 10:56:40;;;;;;;47.35;19.30;;;8.70;99.90;;;;;;5114075;28;20054;-83
2021/12/16 10:59:24;;;;;;;51.03;22.40;;;8.80;99.90;;;;;;5115131;28;20032;-83
2021/12/16 11:01:56;;;;;;;47.53;21.27;;;8.80;99.90;;;;;;5116706;27;20035;-83
2021/12/16 11:04:31;;;;;;;54.08;21.58;;;8.80;99.90;;;;;;5114786;28;20722;-83
2021/12/16 11:07:26;;;;;;;52.60;22.43;;;8.80;99.90;;;;;;5118451;27;20043;-83
2021/12/16 11:10:06;;;;;;;54.57;23.57;;;8.80;99.90;;;;;;5107029;27;20082;-82
2021/12/16 11:12:40;;;;;;;51.23;22.73;;;8.80;99.90;;;;;;5116760;28;20390;-83
2021/12/16 11:15:12;;;;;;;48.67;20.53;;;8.80;99.90;;;;;;5116277;27;20111;-83
2021/12/16 11:17:42;;;;;;;61.13;23.17;;;8.80;99.90;;;;;;5097636;27;20039;-83
2021/12/16 11:20:24;;;;;;;46.20;21.67;;;8.80;99.90;;;;;;5118330;27;20464;-83
2021/12/16 11:22:54;;;;;;;44.97;20.17;;;8.80;99.90;;;;;;5116406;27;20039;-83
2021/12/16 11:25:25;;;;;;;47.17;20.77;;;8.80;99.90;;;;;;5117744;27;20524;-83
2021/12/16 11:28:13;;;;;;;51.40;22.13;;;8.90;99.90;;;;;;5116791;27;20070;-83
2021/12/16 11:30:46;;;;;;;54.10;23.47;;;8.90;99.90;;;;;;5090616;27;20039;-83
2021/12/16 11:33:22;;;;;;;46.47;21.30;;;8.90;99.90;;;;;;5100707;27;20035;-83
2021/12/16 11:36:03;;;;;;;52.37;23.63;;;9.00;99.90;;;;;;5096327;28;20095;-83
2021/12/16 11:38:37;;;;;;;50.47;21.93;;;9.00;99.90;;;;;;5114313;28;20118;-82
2021/12/16 11:41:11;;;;;;;49.70;21.67;;;9.00;99.90;;;;;;5116943;27;20054;-82
2021/12/16 11:44:14;;;;;;;52.20;21.80;;;9.00;99.90;;;;;;5095975;27;20056;-83
2021/12/16 11:46:53;;;;;;;43.43;19.90;;;9.00;99.90;;;;;;5084672;27;20059;-83
2021/12/16 11:49:21;;;;;;;45.83;20.40;;;9.00;99.90;;;;;;5096040;28;20491;-82
2021/12/16 11:51:59;;;;;;;51.60;21.80;;;9.00;99.90;;;;;;5116060;27;20051;-83
2021/12/16 11:54:29;;;;;;;52.53;22.53;;;9.00;99.90;;;;;;5100567;28;20051;-83
2021/12/16 11:57:05;;;;;;;51.43;22.23;;;9.00;99.90;;;;;;5097494;28;20056;-83
2021/12/16 11:59:55;;;;;;;56.10;22.83;;;9.10;99.90;;;;;;5113839;28;20051;-83
2021/12/16 12:02:35;;;;;;;55.67;22.67;;;9.10;99.90;;;;;;5084072;28;20105;-83
2021/12/16 12:05:35;;;;;;;51.27;22.00;;;9.10;99.90;;;;;;5095654;28;20047;-83
2021/12/16 12:08:11;;;;;;;47.57;22.20;;;9.10;99.90;;;;;;5070880;28;20056;-83
2021/12/16 12:10:59;;;;;;;47.53;22.80;;;9.10;99.90;;;;;;5096019;28;20204;-83
2021/12/16 12:13:36;;;;;;;50.10;22.83;;;9.10;99.90;;;;;;5112998;28;20046;-83
2021/12/16 12:16:09;;;;;;;57.03;22.13;;;9.10;99.90;;;;;;5097284;28;20051;-83
2021/12/16 12:18:58;;;;;;;41.63;20.57;;;9.10;99.90;;;;;;5115957;28;20051;-83
2021/12/16 12:21:28;;;;;;;41.50;19.17;;;9.10;99.90;;;;;;5099779;28;20042;-83
2021/12/16 12:24:17;;;;;;;43.70;20.17;;;9.10;99.90;;;;;;5114139;28;20052;-83
2021/12/16 12:27:09;;;;;;;47.23;20.33;;;9.10;99.90;;;;;;5097121;28;20136;-83
2021/12/16 12:29:43;;;;;;;44.00;19.60;;;9.20;99.90;;;;;;5116752;28;20051;-83
2021/12/16 12:32:34;;;;;;;41.87;19.87;;;9.20;99.90;;;;;;5116145;28;20452;-83
2021/12/16 12:35:01;;;;;;;46.43;21.40;;;9.20;99.90;;;;;;5085958;28;20107;-83
2021/12/16 12:37:31;;;;;;;54.03;22.17;;;9.20;99.90;;;;;;5117186;28;20047;-83
2021/12/16 12:40:00;;;;;;;56.87;22.70;;;9.20;99.90;;;;;;5082185;28;20043;-83
2021/12/16 12:42:26;;;;;;;46.13;20.57;;;9.20;99.90;;;;;;5115996;28;20051;-83
2021/12/16 12:44:53;;;;;;;45.57;20.40;;;9.30;99.90;;;;;;5079562;28;20112;-83
2021/12/16 12:47:26;;;;;;;42.20;19.60;;;9.30;99.90;;;;;;5114365;28;20043;-83
2021/12/16 12:49:52;;;;;;;40.63;19.03;;;9.30;99.90;;;;;;5100024;27;20173;-82
2021/12/16 12:52:21;;;;;;;45.93;19.07;;;9.30;99.90;;;;;;5082024;27;20076;-83
2021/12/16 12:55:00;;;;;;;43.47;19.53;;;9.30;99.90;;;;;;5109023;27;20031;-82
2021/12/16 12:57:32;;;;;;;43.30;18.33;;;9.30;99.90;;;;;;5102734;27;20055;-83
2021/12/16 13:00:00;;;;;;;43.35;18.23;;;9.30;99.90;;;;;;5120189;27;20497;-83
2021/12/16 13:02:34;;;;;;;49.40;19.90;;;9.30;99.90;;;;;;5081646;28;20075;-83
2021/12/16 13:05:04;;;;;;;47.70;18.70;;;9.30;99.90;;;;;;5109650;27;20507;-83
2021/12/16 13:07:43;;;;;;;48.07;19.33;;;9.30;99.90;;;;;;5103218;27;20043;-82
2021/12/16 13:10:22;;;;;;;36.37;17.23;;;9.40;99.90;;;;;;5101911;27;20126;-83
2021/12/16 13:13:01;;;;;;;43.67;17.43;;;9.40;99.90;;;;;;5119793;27;20064;-82
2021/12/16 13:24:34;;;;;;;38.00;17.07;;;9.30;99.90;;;;;;5106358;27;20043;-82
2021/12/16 13:30:04;;;;;;;;;;;9.30;99.90;;;;;;5098844;27;20091;-82
2021/12/16 13:32:41;;;;;;;35.37;15.80;;;9.30;99.90;;;;;;5097544;27;19923;-82
2021/12/16 13:37:56;;;;;;;31.90;15.00;;;9.30;99.90;;;;;;5112125;27;20067;-80
2021/12/16 13:40:24;;;;;;;32.93;15.57;;;9.30;99.90;;;;;;5116201;27;20039;-81
2021/12/16 13:43:01;;;;;;;33.27;15.77;;;9.30;99.90;;;;;;5105919;27;20415;-81
2021/12/16 13:45:33;;;;;;;37.03;17.10;;;9.30;99.90;;;;;;5089058;27;20062;-81
2021/12/16 14:05:24;;;;;;;33.63;15.80;;;9.30;99.90;;;;;;5107312;27;20051;-80
2021/12/16 14:07:58;;;;;;;40.00;17.30;;;9.30;99.90;;;;;;5110500;27;20126;-80
2021/12/16 14:10:48;;;;;;;33.60;16.10;;;9.20;99.90;;;;;;5108675;27;20050;-80
2021/12/16 14:16:01;;;;;;;32.22;15.50;;;9.20;99.90;;;;;;5110399;27;20039;-80
2021/12/16 14:48:36;;;;;;;35.20;15.40;;;9.20;99.90;;;;;;5095173;28;20154;-80
2021/12/16 14:50:57;;;;;;;33.53;15.07;;;9.20;99.90;;;;;;5103570;28;20103;-80
2021/12/16 14:53:37;;;;;;;33.03;13.83;;;9.10;99.90;;;;;;5104662;28;20069;-80
2021/12/16 14:56:31;;;;;;;30.83;15.40;;;9.10;99.90;;;;;;5087357;28;20514;-80
2021/12/16 14:59:00;;;;;;;32.80;15.10;;;9.10;99.90;;;;;;5106107;28;20131;-81
2021/12/16 15:01:42;;;;;;;42.00;16.20;;;9.10;99.90;;;;;;5103875;28;20212;-80
2021/12/16 15:04:12;;;;;;;40.22;17.83;;;9.00;99.90;;;;;;5105423;28;20058;-80
2021/12/16 15:06:53;;;;;;;41.90;16.93;;;9.00;99.90;;;;;;5105434;28;20405;-80
2021/12/16 15:09:28;;;;;;;52.57;18.50;;;9.00;99.90;;;;;;5087811;28;20031;-81
2021/12/16 15:12:18;;;;;;;44.40;18.20;;;9.00;99.90;;;;;;5086679;28;20099;-80
2021/12/16 15:31:38;;;;;;;52.37;19.63;;;9.00;99.90;;;;;;5105483;28;20087;-80
2021/12/16 15:43:04;;;;;;;47.90;19.07;;;8.80;99.90;;;;;;5103794;28;20070;-78
2021/12/16 15:45:45;;;;;;;51.20;18.93;;;8.80;99.90;;;;;;5104269;28;20051;-79
2021/12/16 15:48:14;;;;;;;65.33;18.10;;;8.80;99.90;;;;;;5104508;28;20094;-79
2021/12/16 15:50:51;;;;;;;52.90;16.43;;;8.80;99.90;;;;;;5105134;28;20047;-80
2021/12/16 15:53:24;;;;;;;76.47;20.00;;;8.80;99.90;;;;;;5103911;28;20091;-80
2021/12/16 15:56:01;;;;;;;56.17;18.40;;;8.80;99.90;;;;;;5105192;28;20402;-81
2021/12/16 15:58:32;;;;;;;67.80;18.53;;;8.70;99.90;;;;;;5122063;27;20044;-80
2021/12/16 16:01:05;;;;;;;48.45;17.42;;;8.70;99.90;;;;;;5086558;28;20627;-80
2021/12/16 16:03:31;;;;;;;55.20;18.07;;;8.70;99.90;;;;;;5102948;28;20075;-80
2021/12/16 16:06:06;;;;;;;71.10;18.27;;;8.70;99.90;;;;;;5084096;28;20368;-80
2021/12/16 16:08:36;;;;;;;58.43;17.03;;;8.70;99.90;;;;;;5104409;28;20054;-80
2021/12/16 16:11:09;;;;;;;47.23;17.60;;;8.70;99.90;;;;;;5103658;28;20439;-80
2021/12/16 16:13:42;;;;;;;59.37;19.30;;;8.70;99.90;;;;;;5086089;28;20438;-81
2021/12/16 16:16:12;;;;;;;50.83;16.03;;;8.70;99.90;;;;;;5104249;28;20048;-80
2021/12/16 16:18:42;;;;;;;43.23;16.63;;;8.60;99.90;;;;;;5101832;28;20048;-81
2021/12/16 16:21:23;;;;;;;38.73;16.60;;;8.60;99.90;;;;;;5087770;28;21063;-80
2021/12/16 16:23:53;;;;;;;60.03;20.13;;;8.60;99.90;;;;;;5103222;28;20805;-80
2021/12/16 16:26:20;;;;;;;48.23;18.97;;;8.60;99.90;;;;;;5105921;28;20051;-80
2021/12/16 16:28:50;;;;;;;53.83;19.63;;;8.60;99.90;;;;;;5108259;28;20078;-80
2021/12/16 16:31:20;;;;;;;62.07;21.13;;;8.70;99.90;;;;;;5107142;28;20036;-81
2021/12/16 16:33:47;;;;;;;56.73;20.17;;;8.70;99.90;;;;;;5108881;28;20050;-80
2021/12/16 16:36:16;;;;;;;49.80;18.73;;;8.70;99.90;;;;;;5088709;28;20050;-79
2021/12/16 16:38:52;;;;;;;67.90;21.77;;;8.70;99.90;;;;;;5106986;28;20043;-81
2021/12/16 16:41:21;;;;;;;55.23;19.33;;;8.70;99.90;;;;;;5109600;27;20466;-80
2021/12/16 16:43:52;;;;;;;51.10;20.13;;;8.70;99.90;;;;;;5110176;27;20708;-80
2021/12/16 16:46:34;;;;;;;43.60;17.47;;;8.70;99.90;;;;;;5094046;27;20068;-80
2021/12/16 16:49:07;;;;;;;61.10;21.00;;;8.70;99.90;;;;;;5092755;27;20561;-80
2021/12/16 16:51:42;;;;;;;63.30;20.97;;;8.70;99.90;;;;;;5093854;27;20051;-80
2021/12/16 16:54:18;;;;;;;67.77;20.93;;;8.70;99.90;;;;;;5110357;27;20050;-80
2021/12/16 16:56:54;;;;;;;44.67;17.53;;;8.70;99.90;;;;;;5108889;27;20062;-80
2021/12/16 16:59:46;;;;;;;56.07;19.67;;;8.70;99.90;;;;;;5111686;27;20043;-80
2021/12/16 17:02:24;;;;;;;62.45;21.33;;;8.70;99.90;;;;;;5107377;27;20054;-80
2021/12/16 17:05:01;;;;;;;46.47;18.93;;;8.70;99.90;;;;;;5108618;27;20092;-80